sensor_id;sensor_type;location;lat;lon;timestamp;pressure;altitude;pressure_sealevel;temperature;humidity
29169;BME280;16219;42.864;23.360;2023-07-20T00:02:03;95474.69;;;21.80;100.00
29169;BME280;16219;42.864;23.360;2023-07-20T00:04:33;95519.03;;;22.20;100.00
29169;BME280;16219;42.864;23.360;2023-07-20T00:07:00;95516.81;;;22.01;100.00
29169;BME280;16219;42.864;23.360;2023-07-20T00:09:29;95521.38;;;22.04;100.00
29169;BME280;16219;42.864;23.360;2023-07-20T00:11:56;95531.38;;;22.00;100.00
29169;BME280;16219;42.864;23.360;2023-07-20T00:14:25;95538.75;;;21.81;100.00
29169;BME280;16219;42.864;23.360;2023-07-20T00:16:54;95529.91;;;21.84;100.00
29169;BME280;16219;42.864;23.360;2023-07-20T00:19:22;95536.81;;;21.82;100.00
29169;BME280;16219;42.864;23.360;2023-07-20T00:21:49;95530.25;;;21.93;100.00
29169;BME280;16219;42.864;23.360;2023-07-20T00:24:16;95524.13;;;21.96;100.00
29169;BME280;16219;42.864;23.360;2023-07-20T00:26:45;95529.16;;;21.80;100.00
29169;BME280;16219;42.864;23.360;2023-07-20T00:29:15;95529.91;;;21.84;100.00
29169;BME280;16219;42.864;23.360;2023-07-20T00:31:46;95493.91;;;21.71;100.00
29169;BME280;16219;42.864;23.360;2023-07-20T00:34:13;95533.72;;;21.87;100.00
29169;BME280;16219;42.864;23.360;2023-07-20T00:36:40;95528.41;;;21.76;100.00
29169;BME280;16219;42.864;23.360;2023-07-20T00:39:07;95525.78;;;21.55;100.00
29169;BME280;16219;42.864;23.360;2023-07-20T00:41:34;95537.28;;;21.55;100.00
29169;BME280;16219;42.864;23.360;2023-07-20T00:44:05;95531.16;;;21.48;100.00
29169;BME280;16219;42.864;23.360;2023-07-20T00:46:32;95541.53;;;21.45;100.00
29169;BME280;16219;42.864;23.360;2023-07-20T00:49:02;95514.66;;;21.49;100.00
29169;BME280;16219;42.864;23.360;2023-07-20T00:51:29;95538.44;;;21.43;100.00
29169;BME280;16219;42.864;23.360;2023-07-20T00:53:56;95519.31;;;21.20;100.00
29169;BME280;16219;42.864;23.360;2023-07-20T00:56:24;95538.44;;;21.51;100.00
29169;BME280;16219;42.864;23.360;2023-07-20T00:58:51;95538.41;;;21.61;100.00
29169;BME280;16219;42.864;23.360;2023-07-20T01:01:22;95540.72;;;21.63;100.00
29169;BME280;16219;42.864;23.360;2023-07-20T01:03:49;95534.59;;;21.59;100.00
29169;BME280;16219;42.864;23.360;2023-07-20T01:06:26;95536.13;;;21.56;100.00
29169;BME280;16219;42.864;23.360;2023-07-20T01:09:04;95538.41;;;21.65;100.00
29169;BME280;16219;42.864;23.360;2023-07-20T01:11:38;95539.56;;;21.64;100.00
29169;BME280;16219;42.864;23.360;2023-07-20T01:14:05;95533.03;;;21.61;100.00
29169;BME280;16219;42.864;23.360;2023-07-20T01:16:34;95527.66;;;21.61;100.00
29169;BME280;16219;42.864;23.360;2023-07-20T01:19:01;95531.88;;;21.66;100.00
29169;BME280;16219;42.864;23.360;2023-07-20T01:21:32;95528.06;;;21.67;100.00
29169;BME280;16219;42.864;23.360;2023-07-20T01:24:40;95531.09;;;21.62;100.00
29169;BME280;16219;42.864;23.360;2023-07-20T01:27:23;95533.03;;;21.58;100.00
29169;BME280;16219;42.864;23.360;2023-07-20T01:30:14;95531.16;;;21.40;100.00
29169;BME280;16219;42.864;23.360;2023-07-20T01:32:44;95533.88;;;21.37;100.00
29169;BME280;16219;42.864;23.360;2023-07-20T01:35:14;95535.00;;;21.32;100.00
29169;BME280;16219;42.864;23.360;2023-07-20T01:37:43;95535.00;;;21.32;100.00
29169;BME280;16219;42.864;23.360;2023-07-20T01:40:13;95525.44;;;21.38;100.00
29169;BME280;16219;42.864;23.360;2023-07-20T01:42:44;95527.31;;;21.27;100.00
29169;BME280;16219;42.864;23.360;2023-07-20T01:45:10;95510.88;;;21.04;100.00
29169;BME280;16219;42.864;23.360;2023-07-20T01:47:37;95522.00;;;20.91;100.00
29169;BME280;16219;42.864;23.360;2023-07-20T01:50:07;95518.53;;;21.12;100.00
29169;BME280;16219;42.864;23.360;2023-07-20T01:52:34;95523.88;;;21.19;100.00
29169;BME280;16219;42.864;23.360;2023-07-20T01:55:03;95525.44;;;21.24;100.00
29169;BME280;16219;42.864;23.360;2023-07-20T01:57:31;95517.00;;;21.08;100.00
29169;BME280;16219;42.864;23.360;2023-07-20T01:59:58;95504.00;;;21.03;100.00
29169;BME280;16219;42.864;23.360;2023-07-20T02:02:27;95520.09;;;21.03;100.00
29169;BME280;16219;42.864;23.360;2023-07-20T02:04:54;95525.81;;;21.05;100.00
29169;BME280;16219;42.864;23.360;2023-07-20T02:07:22;95521.22;;;20.87;100.00
29169;BME280;16219;42.864;23.360;2023-07-20T02:09:50;95534.25;;;20.92;100.00
29169;BME280;16219;42.864;23.360;2023-07-20T02:12:17;95522.34;;;20.93;100.00
29169;BME280;16219;42.864;23.360;2023-07-20T02:14:44;95519.28;;;20.63;100.00
29169;BME280;16219;42.864;23.360;2023-07-20T02:17:11;95520.44;;;20.76;100.00
29169;BME280;16219;42.864;23.360;2023-07-20T02:19:40;95516.25;;;20.86;100.00
29169;BME280;16219;42.864;23.360;2023-07-20T02:22:07;95507.81;;;20.73;100.00
29169;BME280;16219;42.864;23.360;2023-07-20T02:24:36;95492.50;;;20.66;100.00
29169;BME280;16219;42.864;23.360;2023-07-20T02:27:03;95508.56;;;20.70;100.00
29169;BME280;16219;42.864;23.360;2023-07-20T02:29:31;95506.28;;;20.79;100.00
29169;BME280;16219;42.864;23.360;2023-07-20T02:31:58;95507.06;;;20.69;100.00
29169;BME280;16219;42.864;23.360;2023-07-20T02:34:25;95507.06;;;20.69;100.00
29169;BME280;16219;42.864;23.360;2023-07-20T02:36:52;95506.25;;;20.72;100.00
29169;BME280;16219;42.864;23.360;2023-07-20T02:39:19;95505.91;;;20.70;100.00
29169;BME280;16219;42.864;23.360;2023-07-20T02:41:48;95498.59;;;20.67;100.00
29169;BME280;16219;42.864;23.360;2023-07-20T02:44:15;95489.44;;;20.61;100.00
29169;BME280;16219;42.864;23.360;2023-07-20T02:46:42;95497.81;;;20.45;100.00
29169;BME280;16219;42.864;23.360;2023-07-20T02:49:09;95502.38;;;20.27;100.00
29169;BME280;16219;42.864;23.360;2023-07-20T02:51:36;95499.31;;;20.28;100.00
29169;BME280;16219;42.864;23.360;2023-07-20T02:54:04;95486.69;;;20.32;100.00
29169;BME280;16219;42.864;23.360;2023-07-20T02:56:32;95506.25;;;20.51;100.00
29169;BME280;16219;42.864;23.360;2023-07-20T02:59:02;95514.63;;;20.35;100.00
29169;BME280;16219;42.864;23.360;2023-07-20T03:01:30;95517.28;;;20.38;100.00
29169;BME280;16219;42.864;23.360;2023-07-20T03:03:57;95514.63;;;20.42;100.00
29169;BME280;16219;42.864;23.360;2023-07-20T03:06:24;95513.09;;;20.41;100.00
29169;BME280;16219;42.864;23.360;2023-07-20T03:08:51;95511.56;;;20.36;100.00
29169;BME280;16219;42.864;23.360;2023-07-20T03:11:19;95504.59;;;20.07;100.00
29169;BME280;16219;42.864;23.360;2023-07-20T03:13:47;95510.38;;;20.23;100.00
29169;BME280;16219;42.864;23.360;2023-07-20T03:16:18;95478.59;;;20.11;100.00
29169;BME280;16219;42.864;23.360;2023-07-20T03:18:46;95504.28;;;20.33;100.00
29169;BME280;16219;42.864;23.360;2023-07-20T03:21:13;95508.09;;;20.25;100.00
29169;BME280;16219;42.864;23.360;2023-07-20T03:23:41;95505.75;;;20.02;100.00
29169;BME280;16219;42.864;23.360;2023-07-20T03:26:10;95513.00;;;20.09;100.00
29169;BME280;16219;42.864;23.360;2023-07-20T03:28:38;95506.16;;;20.18;100.00
29169;BME280;16219;42.864;23.360;2023-07-20T03:31:05;95510.78;;;20.32;100.00
29169;BME280;16219;42.864;23.360;2023-07-20T03:33:37;95502.75;;;20.29;100.00
29169;BME280;16219;42.864;23.360;2023-07-20T03:36:05;95506.59;;;20.31;100.00
29169;BME280;16219;42.864;23.360;2023-07-20T03:38:32;95509.66;;;20.37;100.00
29169;BME280;16219;42.864;23.360;2023-07-20T03:41:00;95521.53;;;20.39;100.00
29169;BME280;16219;42.864;23.360;2023-07-20T03:43:28;95443.38;;;20.02;100.00
29169;BME280;16219;42.864;23.360;2023-07-20T03:45:55;95509.69;;;20.55;100.00
29169;BME280;16219;42.864;23.360;2023-07-20T03:48:24;95512.41;;;20.62;100.00
29169;BME280;16219;42.864;23.360;2023-07-20T03:50:53;95519.28;;;20.66;100.00
29169;BME280;16219;42.864;23.360;2023-07-20T03:53:21;95518.84;;;20.46;100.00
29169;BME280;16219;42.864;23.360;2023-07-20T03:55:49;95512.38;;;20.58;100.00
29169;BME280;16219;42.864;23.360;2023-07-20T03:58:16;95523.13;;;20.65;100.00
29169;BME280;16219;42.864;23.360;2023-07-20T04:00:45;95532.31;;;20.75;100.00
29169;BME280;16219;42.864;23.360;2023-07-20T04:03:12;95522.38;;;20.79;100.00
29169;BME280;16219;42.864;23.360;2023-07-20T04:05:40;95514.69;;;20.85;100.00
29169;BME280;16219;42.864;23.360;2023-07-20T04:08:08;95486.72;;;20.68;100.00
29169;BME280;16219;42.864;23.360;2023-07-20T04:10:36;95522.00;;;20.91;100.00
29169;BME280;16219;42.864;23.360;2023-07-20T04:13:04;95453.41;;;20.40;100.00
29169;BME280;16219;42.864;23.360;2023-07-20T04:15:31;95511.25;;;20.91;100.00
29169;BME280;16219;42.864;23.360;2023-07-20T04:17:59;95508.16;;;21.18;100.00
29169;BME280;16219;42.864;23.360;2023-07-20T04:20:26;95510.84;;;21.50;100.00
29169;BME280;16219;42.864;23.360;2023-07-20T04:22:53;95505.25;;;22.07;100.00
29169;BME280;16219;42.864;23.360;2023-07-20T04:25:23;95499.78;;;22.91;100.00
29169;BME280;16219;42.864;23.360;2023-07-20T04:27:51;95496.78;;;23.65;100.00
29169;BME280;16219;42.864;23.360;2023-07-20T04:30:19;95501.69;;;24.38;100.00
29169;BME280;16219;42.864;23.360;2023-07-20T04:32:48;95497.41;;;24.68;100.00
29169;BME280;16219;42.864;23.360;2023-07-20T04:35:18;95501.75;;;25.32;100.00
29169;BME280;16219;42.864;23.360;2023-07-20T04:37:47;95499.41;;;25.74;100.00
29169;BME280;16219;42.864;23.360;2023-07-20T04:40:17;95496.84;;;26.27;100.00
29169;BME280;16219;42.864;23.360;2023-07-20T04:42:46;95494.56;;;26.61;100.00
29169;BME280;16219;42.864;23.360;2023-07-20T04:45:14;95493.38;;;26.79;100.00
29169;BME280;16219;42.864;23.360;2023-07-20T04:47:45;95490.34;;;27.09;100.00
29169;BME280;16219;42.864;23.360;2023-07-20T04:50:12;95498.47;;;27.55;96.79
29169;BME280;16219;42.864;23.360;2023-07-20T04:52:39;95488.31;;;27.88;93.81
29169;BME280;16219;42.864;23.360;2023-07-20T04:55:07;95501.63;;;28.37;90.66
29169;BME280;16219;42.864;23.360;2023-07-20T04:57:34;95493.81;;;27.84;92.90
29169;BME280;16219;42.864;23.360;2023-07-20T05:00:04;95506.09;;;28.44;91.34
29169;BME280;16219;42.864;23.360;2023-07-20T05:02:33;95497.72;;;28.76;89.10
29169;BME280;16219;42.864;23.360;2023-07-20T05:05:00;95506.56;;;29.28;86.16
29169;BME280;16219;42.864;23.360;2023-07-20T05:07:27;95505.59;;;29.56;83.42
29169;BME280;16219;42.864;23.360;2023-07-20T05:09:54;95495.69;;;29.62;76.97
29169;BME280;16219;42.864;23.360;2023-07-20T05:12:22;95511.31;;;29.93;76.69
29169;BME280;16219;42.864;23.360;2023-07-20T05:14:49;95506.25;;;30.04;76.41
29169;BME280;16219;42.864;23.360;2023-07-20T05:17:17;95518.88;;;30.20;77.18
29169;BME280;16219;42.864;23.360;2023-07-20T05:19:44;95502.81;;;30.13;72.46
29169;BME280;16219;42.864;23.360;2023-07-20T05:22:13;95493.44;;;30.14;72.88
29169;BME280;16219;42.864;23.360;2023-07-20T05:24:40;95488.78;;;30.15;76.09
29169;BME280;16219;42.864;23.360;2023-07-20T05:27:07;95501.13;;;29.84;76.84
29169;BME280;16219;42.864;23.360;2023-07-20T05:29:34;95495.63;;;29.06;83.41
29169;BME280;16219;42.864;23.360;2023-07-20T05:32:01;95495.22;;;28.44;88.95
29169;BME280;16219;42.864;23.360;2023-07-20T05:34:30;95493.63;;;27.92;94.29
29169;BME280;16219;42.864;23.360;2023-07-20T05:37:12;95506.38;;;27.49;98.07
29169;BME280;16219;42.864;23.360;2023-07-20T05:39:39;95505.63;;;27.32;100.00
29169;BME280;16219;42.864;23.360;2023-07-20T05:42:06;95512.50;;;27.21;97.27
29169;BME280;16219;42.864;23.360;2023-07-20T05:44:34;95512.31;;;26.95;98.48
29169;BME280;16219;42.864;23.360;2023-07-20T05:47:00;95514.44;;;26.71;100.00
29169;BME280;16219;42.864;23.360;2023-07-20T05:49:29;95512.72;;;26.45;100.00
29169;BME280;16219;42.864;23.360;2023-07-20T05:51:57;95514.03;;;26.36;100.00
29169;BME280;16219;42.864;23.360;2023-07-20T05:54:24;95490.00;;;26.22;100.00
29169;BME280;16219;42.864;23.360;2023-07-20T05:56:52;95471.34;;;25.91;100.00
29169;BME280;16219;42.864;23.360;2023-07-20T05:59:19;95513.97;;;26.20;100.00
29169;BME280;16219;42.864;23.360;2023-07-20T06:01:46;95504.84;;;26.14;100.00
29169;BME280;16219;42.864;23.360;2023-07-20T06:04:14;95508.53;;;25.84;100.00
29169;BME280;16219;42.864;23.360;2023-07-20T06:06:43;95512.34;;;25.86;100.00
29169;BME280;16219;42.864;23.360;2023-07-20T06:09:10;95509.03;;;25.79;100.00
29169;BME280;16219;42.864;23.360;2023-07-20T06:11:37;95498.63;;;25.97;100.00
29169;BME280;16219;42.864;23.360;2023-07-20T06:14:05;95503.47;;;26.06;100.00
29169;BME280;16219;42.864;23.360;2023-07-20T06:16:32;95501.56;;;26.23;100.00
29169;BME280;16219;42.864;23.360;2023-07-20T06:18:59;95485.22;;;26.46;100.00
29169;BME280;16219;42.864;23.360;2023-07-20T06:21:27;95489.50;;;26.63;100.00
29169;BME280;16219;42.864;23.360;2023-07-20T06:23:55;95495.31;;;26.78;100.00
29169;BME280;16219;42.864;23.360;2023-07-20T06:26:23;95487.53;;;26.97;100.00
29169;BME280;16219;42.864;23.360;2023-07-20T06:28:50;95476.63;;;27.00;100.00
29169;BME280;16219;42.864;23.360;2023-07-20T06:31:17;95478.72;;;27.09;100.00
29169;BME280;16219;42.864;23.360;2023-07-20T06:33:44;95477.91;;;27.12;96.62
29169;BME280;16219;42.864;23.360;2023-07-20T06:36:11;95485.59;;;27.13;99.68
29169;BME280;16219;42.864;23.360;2023-07-20T06:38:38;95483.63;;;27.30;100.00
29169;BME280;16219;42.864;23.360;2023-07-20T06:41:07;95479.00;;;27.44;97.94
29169;BME280;16219;42.864;23.360;2023-07-20T06:43:34;95470.75;;;27.34;98.90
29169;BME280;16219;42.864;23.360;2023-07-20T06:46:01;95479.69;;;27.48;99.29
29169;BME280;16219;42.864;23.360;2023-07-20T06:48:28;95479.09;;;27.69;96.58
29169;BME280;16219;42.864;23.360;2023-07-20T06:50:55;95471.84;;;27.66;92.70
29169;BME280;16219;42.864;23.360;2023-07-20T06:53:22;95475.03;;;27.77;92.67
29169;BME280;16219;42.864;23.360;2023-07-20T06:55:49;95488.50;;;27.81;89.82
29169;BME280;16219;42.864;23.360;2023-07-20T06:58:18;95497.91;;;27.76;90.39
29169;BME280;16219;42.864;23.360;2023-07-20T07:00:47;95501.97;;;27.68;89.98
29169;BME280;16219;42.864;23.360;2023-07-20T07:03:14;95503.22;;;27.51;92.52
29169;BME280;16219;42.864;23.360;2023-07-20T07:05:41;95473.13;;;27.32;93.69
29169;BME280;16219;42.864;23.360;2023-07-20T07:08:08;95515.81;;;27.57;92.54
29169;BME280;16219;42.864;23.360;2023-07-20T07:10:36;95521.25;;;27.57;94.72
29169;BME280;16219;42.864;23.360;2023-07-20T07:13:03;95519.28;;;27.58;94.77
29169;BME280;16219;42.864;23.360;2023-07-20T07:15:32;95516.31;;;27.52;92.58
29169;BME280;16219;42.864;23.360;2023-07-20T07:17:59;95502.06;;;27.35;93.73
29169;BME280;16219;42.864;23.360;2023-07-20T07:20:26;95529.63;;;27.47;94.70
29169;BME280;16219;42.864;23.360;2023-07-20T07:22:53;95534.22;;;27.50;92.43
29169;BME280;16219;42.864;23.360;2023-07-20T07:25:21;95533.88;;;27.48;93.75
29169;BME280;16219;42.864;23.360;2023-07-20T07:27:48;95530.13;;;27.58;97.08
29169;BME280;16219;42.864;23.360;2023-07-20T07:30:15;95522.22;;;27.80;99.77
29169;BME280;16219;42.864;23.360;2023-07-20T07:32:44;95517.06;;;28.11;95.09
29169;BME280;16219;42.864;23.360;2023-07-20T07:35:11;95513.53;;;28.27;96.63
29169;BME280;16219;42.864;23.360;2023-07-20T07:37:38;95512.91;;;28.35;88.64
29169;BME280;16219;42.864;23.360;2023-07-20T07:40:07;95509.34;;;28.38;88.37
29169;BME280;16219;42.864;23.360;2023-07-20T07:42:34;95503.28;;;28.47;91.50
29169;BME280;16219;42.864;23.360;2023-07-20T07:45:01;95482.88;;;28.43;95.66
29169;BME280;16219;42.864;23.360;2023-07-20T07:47:29;95443.88;;;28.49;94.20
29169;BME280;16219;42.864;23.360;2023-07-20T07:49:57;95475.66;;;29.00;98.46
29169;BME280;16219;42.864;23.360;2023-07-20T07:52:25;95485.75;;;28.99;90.80
29169;BME280;16219;42.864;23.360;2023-07-20T07:54:52;95473.13;;;29.05;95.55
29169;BME280;16219;42.864;23.360;2023-07-20T07:57:19;95481.53;;;29.33;88.87
29169;BME280;16219;42.864;23.360;2023-07-20T07:59:46;95478.84;;;29.20;92.53
29169;BME280;16219;42.864;23.360;2023-07-20T08:02:13;95471.66;;;29.26;93.72
29169;BME280;16219;42.864;23.360;2023-07-20T08:04:40;95488.25;;;29.41;92.32
29169;BME280;16219;42.864;23.360;2023-07-20T08:07:08;95489.78;;;29.64;94.58
29169;BME280;16219;42.864;23.360;2023-07-20T08:09:36;95507.72;;;29.74;95.07
29169;BME280;16219;42.864;23.360;2023-07-20T08:12:04;95521.78;;;29.82;92.67
29169;BME280;16219;42.864;23.360;2023-07-20T08:14:31;95507.38;;;29.72;85.03
29169;BME280;16219;42.864;23.360;2023-07-20T08:16:58;95509.72;;;29.61;84.97
29169;BME280;16219;42.864;23.360;2023-07-20T08:19:25;95500.13;;;29.22;80.95
29169;BME280;16219;42.864;23.360;2023-07-20T08:21:52;95508.56;;;28.89;78.40
29169;BME280;16219;42.864;23.360;2023-07-20T08:24:20;95496.84;;;28.67;82.96
29169;BME280;16219;42.864;23.360;2023-07-20T08:26:47;95504.03;;;28.60;78.37
29169;BME280;16219;42.864;23.360;2023-07-20T08:29:14;95497.28;;;28.52;78.00
29169;BME280;16219;42.864;23.360;2023-07-20T08:31:41;95483.38;;;28.63;89.40
29169;BME280;16219;42.864;23.360;2023-07-20T08:34:08;95481.56;;;28.60;77.59
29169;BME280;16219;42.864;23.360;2023-07-20T08:36:36;95491.38;;;28.92;81.29
29169;BME280;16219;42.864;23.360;2023-07-20T08:39:03;95485.72;;;29.12;75.14
29169;BME280;16219;42.864;23.360;2023-07-20T08:41:31;95447.16;;;28.92;74.70
29169;BME280;16219;42.864;23.360;2023-07-20T08:44:01;95473.53;;;29.17;74.37
29169;BME280;16219;42.864;23.360;2023-07-20T08:46:28;95477.56;;;29.12;78.90
29169;BME280;16219;42.864;23.360;2023-07-20T08:48:56;95478.75;;;29.24;71.45
29169;BME280;16219;42.864;23.360;2023-07-20T08:51:25;95480.78;;;29.32;71.20
29169;BME280;16219;42.864;23.360;2023-07-20T08:53:52;95481.28;;;29.40;75.87
29169;BME280;16219;42.864;23.360;2023-07-20T08:56:20;95467.03;;;29.49;72.54
29169;BME280;16219;42.864;23.360;2023-07-20T08:58:49;95465.78;;;29.62;72.64
29169;BME280;16219;42.864;23.360;2023-07-20T09:01:17;95461.47;;;29.74;73.30
29169;BME280;16219;42.864;23.360;2023-07-20T09:03:45;95458.28;;;29.98;73.25
29169;BME280;16219;42.864;23.360;2023-07-20T09:06:13;95450.69;;;30.15;70.24
29169;BME280;16219;42.864;23.360;2023-07-20T09:08:40;95448.19;;;30.29;73.86
29169;BME280;16219;42.864;23.360;2023-07-20T09:11:07;95450.59;;;30.27;71.67
29169;BME280;16219;42.864;23.360;2023-07-20T09:13:35;95456.06;;;30.36;71.42
29169;BME280;16219;42.864;23.360;2023-07-20T09:16:04;95457.06;;;30.61;67.66
29169;BME280;16219;42.864;23.360;2023-07-20T09:18:32;95424.22;;;30.46;60.78
29169;BME280;16219;42.864;23.360;2023-07-20T09:21:02;95439.28;;;30.87;64.80
29169;BME280;16219;42.864;23.360;2023-07-20T09:23:31;95428.72;;;30.99;60.11
29169;BME280;16219;42.864;23.360;2023-07-20T09:25:58;95432.97;;;31.27;72.19
29169;BME280;16219;42.864;23.360;2023-07-20T09:28:26;95442.34;;;31.26;61.69
29169;BME280;16219;42.864;23.360;2023-07-20T09:30:54;95442.22;;;31.39;64.20
29169;BME280;16219;42.864;23.360;2023-07-20T09:33:24;95435.84;;;31.42;61.93
29169;BME280;16219;42.864;23.360;2023-07-20T09:35:52;95442.50;;;31.59;58.63
29169;BME280;16219;42.864;23.360;2023-07-20T09:38:19;95447.34;;;31.65;62.69
29169;BME280;16219;42.864;23.360;2023-07-20T09:40:46;95450.50;;;32.00;59.54
29169;BME280;16219;42.864;23.360;2023-07-20T09:43:15;95432.44;;;32.12;53.03
29169;BME280;16219;42.864;23.360;2023-07-20T09:45:43;95442.69;;;32.26;49.75
29169;BME280;16219;42.864;23.360;2023-07-20T09:48:11;95443.03;;;32.09;51.58
29169;BME280;16219;42.864;23.360;2023-07-20T09:50:41;95430.06;;;31.77;48.78
29169;BME280;16219;42.864;23.360;2023-07-20T09:53:11;95418.72;;;31.69;47.47
29169;BME280;16219;42.864;23.360;2023-07-20T09:55:40;95406.88;;;31.72;55.59
29169;BME280;16219;42.864;23.360;2023-07-20T09:58:08;95406.44;;;31.65;52.33
29169;BME280;16219;42.864;23.360;2023-07-20T10:00:36;95399.97;;;31.53;54.00
29169;BME280;16219;42.864;23.360;2023-07-20T10:03:04;95409.66;;;31.45;54.29
29169;BME280;16219;42.864;23.360;2023-07-20T10:05:33;95404.38;;;31.41;48.75
29169;BME280;16219;42.864;23.360;2023-07-20T10:08:03;95402.53;;;31.47;49.95
29169;BME280;16219;42.864;23.360;2023-07-20T10:10:33;95409.94;;;31.65;52.56
29169;BME280;16219;42.864;23.360;2023-07-20T10:13:01;95410.19;;;31.76;51.37
29169;BME280;16219;42.864;23.360;2023-07-20T10:15:31;95410.44;;;32.06;52.64
29169;BME280;16219;42.864;23.360;2023-07-20T10:18:09;95409.59;;;32.24;54.73
29169;BME280;16219;42.864;23.360;2023-07-20T10:20:39;95409.56;;;32.00;52.14
29169;BME280;16219;42.864;23.360;2023-07-20T10:23:08;95417.19;;;31.87;51.84
29169;BME280;16219;42.864;23.360;2023-07-20T10:25:36;95408.41;;;31.73;53.53
29169;BME280;16219;42.864;23.360;2023-07-20T10:28:09;95411.63;;;31.53;54.94
29169;BME280;16219;42.864;23.360;2023-07-20T10:30:46;95421.47;;;31.42;59.12
29169;BME280;16219;42.864;23.360;2023-07-20T10:33:22;95413.78;;;31.31;56.79
29169;BME280;16219;42.864;23.360;2023-07-20T10:35:53;95414.97;;;31.48;63.38
29169;BME280;16219;42.864;23.360;2023-07-20T10:38:38;95403.59;;;31.50;62.94
29169;BME280;16219;42.864;23.360;2023-07-20T10:41:16;95397.22;;;31.62;57.22
29169;BME280;16219;42.864;23.360;2023-07-20T10:43:44;95402.97;;;31.73;57.89
29169;BME280;16219;42.864;23.360;2023-07-20T10:46:11;95401.28;;;31.76;70.80
29169;BME280;16219;42.864;23.360;2023-07-20T10:48:59;95393.41;;;31.78;58.97
29169;BME280;16219;42.864;23.360;2023-07-20T10:51:28;95392.44;;;31.90;57.31
29169;BME280;16219;42.864;23.360;2023-07-20T10:53:57;95381.41;;;31.84;53.09
29169;BME280;16219;42.864;23.360;2023-07-20T10:56:27;95375.34;;;31.90;56.36
29169;BME280;16219;42.864;23.360;2023-07-20T10:58:58;95370.78;;;31.96;51.88
29169;BME280;16219;42.864;23.360;2023-07-20T11:01:30;95367.69;;;32.12;49.52
29169;BME280;16219;42.864;23.360;2023-07-20T11:03:58;95356.25;;;32.23;47.14
29169;BME280;16219;42.864;23.360;2023-07-20T11:06:31;95365.28;;;32.38;48.28
29169;BME280;16219;42.864;23.360;2023-07-20T11:09:07;95361.13;;;32.52;46.74
29169;BME280;16219;42.864;23.360;2023-07-20T11:11:37;95357.53;;;32.46;50.82
29169;BME280;16219;42.864;23.360;2023-07-20T11:14:05;95357.53;;;32.46;52.89
29169;BME280;16219;42.864;23.360;2023-07-20T11:16:34;95348.09;;;32.47;53.74
29169;BME280;16219;42.864;23.360;2023-07-20T11:19:02;95363.44;;;32.44;53.19
29169;BME280;16219;42.864;23.360;2023-07-20T11:21:36;95359.06;;;32.38;54.25
29169;BME280;16219;42.864;23.360;2023-07-20T11:24:07;95349.34;;;32.36;53.76
29169;BME280;16219;42.864;23.360;2023-07-20T11:26:46;95351.78;;;32.34;50.51
29169;BME280;16219;42.864;23.360;2023-07-20T11:29:15;95354.97;;;32.42;52.67
29169;BME280;16219;42.864;23.360;2023-07-20T11:31:43;95350.63;;;32.26;48.88
29169;BME280;16219;42.864;23.360;2023-07-20T11:34:12;95350.63;;;32.26;50.55
29169;BME280;16219;42.864;23.360;2023-07-20T11:36:40;95348.44;;;32.40;54.69
29169;BME280;16219;42.864;23.360;2023-07-20T11:39:11;95344.00;;;32.66;51.76
29169;BME280;16219;42.864;23.360;2023-07-20T11:41:38;95337.28;;;32.76;54.31
29169;BME280;16219;42.864;23.360;2023-07-20T11:44:10;95339.88;;;32.71;44.20
29169;BME280;16219;42.864;23.360;2023-07-20T11:46:39;95314.59;;;32.46;46.85
29169;BME280;16219;42.864;23.360;2023-07-20T11:49:08;95335.69;;;32.84;46.41
29169;BME280;16219;42.864;23.360;2023-07-20T11:51:36;95331.78;;;33.00;46.40
29169;BME280;16219;42.864;23.360;2023-07-20T11:54:06;95332.25;;;32.99;43.61
29169;BME280;16219;42.864;23.360;2023-07-20T11:56:35;95322.00;;;33.08;42.51
29169;BME280;16219;42.864;23.360;2023-07-20T11:59:03;95326.13;;;33.04;43.30
29169;BME280;16219;42.864;23.360;2023-07-20T12:01:32;95305.31;;;33.21;46.08
29169;BME280;16219;42.864;23.360;2023-07-20T12:04:01;95302.13;;;33.23;45.70
29169;BME280;16219;42.864;23.360;2023-07-20T12:06:29;95304.78;;;33.32;44.99
29169;BME280;16219;42.864;23.360;2023-07-20T12:08:57;95309.66;;;33.43;45.26
29169;BME280;16219;42.864;23.360;2023-07-20T12:11:35;95304.78;;;33.62;45.45
29169;BME280;16219;42.864;23.360;2023-07-20T12:14:03;95303.47;;;33.57;41.23
29169;BME280;16219;42.864;23.360;2023-07-20T12:16:30;95307.03;;;33.63;43.58
29169;BME280;16219;42.864;23.360;2023-07-20T12:19:01;95303.34;;;33.51;43.05
29169;BME280;16219;42.864;23.360;2023-07-20T12:21:29;95295.53;;;33.59;44.92
29169;BME280;16219;42.864;23.360;2023-07-20T12:23:57;95305.22;;;33.60;44.01
29169;BME280;16219;42.864;23.360;2023-07-20T12:26:25;95295.38;;;33.48;42.61
29169;BME280;16219;42.864;23.360;2023-07-20T12:28:54;95280.91;;;33.47;46.30
29169;BME280;16219;42.864;23.360;2023-07-20T12:31:22;95294.66;;;33.82;45.98
29169;BME280;16219;42.864;23.360;2023-07-20T12:33:50;95291.06;;;33.76;42.69
29169;BME280;16219;42.864;23.360;2023-07-20T12:36:17;95284.94;;;33.67;43.08
29169;BME280;16219;42.864;23.360;2023-07-20T12:38:45;95292.91;;;33.50;42.98
29169;BME280;16219;42.864;23.360;2023-07-20T12:41:12;95281.19;;;33.34;44.36
29169;BME280;16219;42.864;23.360;2023-07-20T12:43:40;95277.69;;;33.34;45.98
29169;BME280;16219;42.864;23.360;2023-07-20T12:46:09;95286.00;;;33.40;43.76
29169;BME280;16219;42.864;23.360;2023-07-20T12:48:37;95282.53;;;33.39;43.16
29169;BME280;16219;42.864;23.360;2023-07-20T12:51:06;95261.50;;;33.45;43.37
29169;BME280;16219;42.864;23.360;2023-07-20T12:53:33;95250.06;;;33.17;43.66